createdAt,value
2022-09-24T00:01:47.789Z,39.45
2022-09-24T00:03:39.298Z,38.83
2022-09-24T00:05:29.982Z,38.25
2022-09-24T00:07:20.173Z,37.20
2022-09-24T00:09:11.400Z,39.33
2022-09-24T00:11:04.682Z,38.17
2022-09-24T00:12:54.971Z,36.92
2022-09-24T00:14:45.437Z,37.17
2022-09-24T00:16:36.045Z,37.28
2022-09-24T00:18:28.949Z,36.67
2022-09-24T00:20:19.393Z,36.42
2022-09-24T00:22:09.831Z,39.03
2022-09-24T00:24:02.157Z,35.75
2022-09-24T00:27:43.072Z,35.10
2022-09-24T00:29:34.507Z,35.80
2022-09-24T00:31:25.646Z,34.80
2022-09-24T00:33:16.171Z,33.10
2022-09-24T00:35:08.365Z,34.40
2022-09-24T00:38:51.020Z,34.75
2022-09-24T00:40:41.321Z,33.17
2022-09-24T00:42:31.877Z,34.53
2022-09-24T00:44:48.219Z,32.88
2022-09-24T00:46:41.018Z,34.63
2022-09-24T00:48:31.690Z,33.83
2022-09-24T00:50:26.395Z,33.05
2022-09-24T00:52:18.406Z,33.72
2022-09-24T00:54:11.241Z,31.95
2022-09-24T00:56:03.272Z,32.75
2022-09-24T00:57:56.529Z,32.17
2022-09-24T00:59:47.356Z,31.65
2022-09-24T01:01:38.135Z,34.15
2022-09-24T01:03:29.106Z,31.65
2022-09-24T01:05:19.738Z,33.40
2022-09-24T01:07:11.724Z,36.22
2022-09-24T01:09:02.303Z,33.38
2022-09-24T01:11:12.214Z,33.75
2022-09-24T01:13:08.403Z,35.38
2022-09-24T01:15:12.114Z,36.53
2022-09-24T01:17:10.552Z,35.17
2022-09-24T01:19:10.462Z,33.83
2022-09-24T01:21:15.684Z,35.95
2022-09-24T01:23:20.873Z,31.20
2022-09-24T01:25:17.910Z,35.08
2022-09-24T01:27:12.768Z,31.63
2022-09-24T01:29:24.146Z,33.00
2022-09-24T01:31:18.256Z,30.88
2022-09-24T01:33:13.221Z,32.92
2022-09-24T01:35:07.755Z,32.70
2022-09-24T01:36:59.387Z,33.03
2022-09-24T01:38:51.489Z,30.80
2022-09-24T01:42:33.545Z,34.35
2022-09-24T01:44:25.770Z,31.45
2022-09-24T01:48:07.330Z,31.05
2022-09-24T01:49:58.193Z,32.83
2022-09-24T01:51:51.825Z,32.67
2022-09-24T01:53:45.715Z,30.60
2022-09-24T01:55:39.642Z,30.77
2022-09-24T01:57:31.870Z,31.50
2022-09-24T01:59:28.010Z,31.08
2022-09-24T02:01:22.754Z,32.88
2022-09-24T02:03:16.065Z,32.42
2022-09-24T02:05:10.107Z,32.08
2022-09-24T02:07:04.728Z,31.83
2022-09-24T02:08:56.944Z,34.58
2022-09-24T02:12:39.680Z,35.03
2022-09-24T02:14:32.938Z,36.92
2022-09-24T02:16:27.383Z,34.85
2022-09-24T02:18:19.922Z,37.30
2022-09-24T02:20:14.122Z,39.05
2022-09-24T02:22:06.128Z,36.15
2022-09-24T02:23:59.951Z,37.13
2022-09-24T02:25:52.396Z,36.75
2022-09-24T02:27:43.219Z,36.75
2022-09-24T02:29:35.398Z,39.90
2022-09-24T02:31:29.595Z,41.00
2022-09-24T02:33:21.859Z,41.17
2022-09-24T02:35:12.940Z,38.00
2022-09-24T02:37:06.478Z,41.90
2022-09-24T02:38:56.661Z,38.17
2022-09-24T02:40:47.806Z,38.00
2022-09-24T02:42:39.014Z,38.57
2022-09-24T02:44:29.280Z,38.35
2022-09-24T02:46:21.052Z,37.70
2022-09-24T02:48:11.603Z,41.92
2022-09-24T02:50:01.965Z,40.22
2022-09-24T02:51:52.436Z,38.97
2022-09-24T02:53:42.775Z,38.65
2022-09-24T02:55:32.971Z,39.53
2022-09-24T02:57:23.586Z,39.35
2022-09-24T02:59:14.344Z,37.95
2022-09-24T03:01:05.145Z,39.00
2022-09-24T03:02:57.087Z,37.53
2022-09-24T03:04:47.549Z,36.58
2022-09-24T03:06:38.225Z,39.00
2022-09-24T03:08:26.996Z,37.88
2022-09-24T03:10:17.681Z,38.72
2022-09-24T03:12:07.971Z,36.08
2022-09-24T03:13:58.455Z,39.25
2022-09-24T03:15:49.332Z,34.95
2022-09-24T03:17:39.685Z,35.30
2022-09-24T03:19:35.599Z,36.03
2022-09-24T03:21:27.641Z,36.25
2022-09-24T03:23:18.165Z,34.65
2022-09-24T03:25:09.478Z,35.33
2022-09-24T03:26:59.894Z,35.30
2022-09-24T03:28:50.313Z,34.85
2022-09-24T03:30:40.952Z,36.03
2022-09-24T03:32:34.274Z,34.40
2022-09-24T03:34:24.543Z,37.00
2022-09-24T03:36:19.046Z,38.47
2022-09-24T03:38:09.795Z,35.63
2022-09-24T03:40:02.001Z,35.50
2022-09-24T03:41:52.643Z,34.38
2022-09-24T03:43:43.670Z,37.90
2022-09-24T03:45:35.202Z,35.80
2022-09-24T03:47:25.755Z,35.35
2022-09-24T03:49:16.099Z,36.83
2022-09-24T03:51:10.389Z,38.72
2022-09-24T03:53:02.615Z,36.53
2022-09-24T03:54:52.919Z,35.28
2022-09-24T03:56:47.852Z,34.33
2022-09-24T03:58:38.836Z,34.88
2022-09-24T04:00:29.577Z,38.28
2022-09-24T04:02:20.281Z,34.83
2022-09-24T04:04:13.826Z,36.53
2022-09-24T04:06:05.899Z,36.63
2022-09-24T04:07:56.375Z,34.38
2022-09-24T04:09:49.599Z,36.47
2022-09-24T04:11:42.187Z,37.13
2022-09-24T04:13:32.874Z,39.25
2022-09-24T04:15:28.262Z,35.25
2022-09-24T04:17:18.698Z,36.25
2022-09-24T04:19:09.037Z,35.97
2022-09-24T04:21:02.367Z,39.30
2022-09-24T04:22:56.464Z,37.45
2022-09-24T04:24:48.324Z,36.47
2022-09-24T04:26:40.058Z,37.78
2022-09-24T04:28:30.905Z,37.80
2022-09-24T04:30:22.838Z,38.78
2022-09-24T04:32:14.081Z,37.85
2022-09-24T04:34:04.978Z,38.55
2022-09-24T04:35:55.471Z,39.92
2022-09-24T04:37:47.330Z,39.63
2022-09-24T04:39:37.840Z,41.88
2022-09-24T04:41:29.786Z,41.33
2022-09-24T04:43:20.372Z,42.05
2022-09-24T04:45:12.067Z,43.65
2022-09-24T04:47:03.435Z,43.00
2022-09-24T04:48:55.270Z,45.85
2022-09-24T04:50:46.680Z,45.45
2022-09-24T04:52:37.754Z,47.47
2022-09-24T04:54:28.505Z,51.97
2022-09-24T04:56:22.309Z,55.33
2022-09-24T04:58:14.075Z,53.63
2022-09-24T05:00:08.638Z,54.05
2022-09-24T05:01:59.594Z,52.92
2022-09-24T05:03:51.345Z,49.50
2022-09-24T05:05:41.706Z,48.70
2022-09-24T05:07:32.347Z,46.30
2022-09-24T05:09:26.179Z,44.22
2022-09-24T05:11:16.550Z,43.17
2022-09-24T05:13:07.258Z,42.33
2022-09-24T05:14:59.054Z,45.97
2022-09-24T05:16:49.797Z,48.45
2022-09-24T05:18:40.407Z,49.08
2022-09-24T05:20:31.329Z,50.75
2022-09-24T05:22:21.784Z,46.45
2022-09-24T05:24:12.700Z,43.75
2022-09-24T05:26:03.157Z,46.85
2022-09-24T05:27:55.502Z,37.97
2022-09-24T05:29:52.290Z,38.38
2022-09-24T05:31:57.357Z,37.65
2022-09-24T05:33:49.903Z,36.97
2022-09-24T05:35:48.372Z,35.30
2022-09-24T05:37:45.779Z,36.97
2022-09-24T05:39:54.971Z,37.00
2022-09-24T05:42:02.479Z,33.13
2022-09-24T05:44:09.411Z,37.38
2022-09-24T05:46:05.307Z,38.88
2022-09-24T05:48:06.500Z,34.10
2022-09-24T05:50:02.797Z,33.45
2022-09-24T05:51:58.847Z,34.55
2022-09-24T05:53:52.821Z,31.27
2022-09-24T05:55:45.716Z,29.48
2022-09-24T05:57:49.059Z,28.23
2022-09-24T05:59:43.984Z,26.15
2022-09-24T06:01:37.339Z,21.42
2022-09-24T06:03:40.837Z,18.98
2022-09-24T06:05:44.956Z,17.38
2022-09-24T06:07:36.220Z,15.23
2022-09-24T06:09:33.238Z,11.80
2022-09-24T06:11:25.235Z,7.27
2022-09-24T06:13:20.320Z,5.63
2022-09-24T06:15:11.372Z,4.78
2022-09-24T06:17:10.746Z,4.32
2022-09-24T06:19:05.437Z,4.45
2022-09-24T06:21:05.074Z,4.20
2022-09-24T06:23:00.594Z,5.50
2022-09-24T06:26:46.129Z,5.50
2022-09-24T06:28:41.770Z,4.30
2022-09-24T06:30:44.426Z,5.20
2022-09-24T06:32:37.049Z,4.40
2022-09-24T06:34:29.202Z,4.97
2022-09-24T06:36:30.457Z,4.85
2022-09-24T06:40:12.101Z,5.43
2022-09-24T06:42:02.998Z,5.85
2022-09-24T06:43:54.188Z,7.03
2022-09-24T06:45:45.444Z,6.32
2022-09-24T06:47:35.847Z,8.63
2022-09-24T06:49:33.838Z,7.82
2022-09-24T06:51:25.213Z,8.45
2022-09-24T06:53:15.938Z,8.57
2022-09-24T06:55:07.220Z,7.05
2022-09-24T06:56:57.805Z,8.30
2022-09-24T06:58:48.044Z,6.32
2022-09-24T07:00:39.791Z,5.80
2022-09-24T07:02:30.628Z,5.72
2022-09-24T07:04:21.457Z,5.63
2022-09-24T07:06:13.561Z,5.70
2022-09-24T07:08:04.077Z,5.85
2022-09-24T07:09:54.801Z,5.80
2022-09-24T07:11:45.050Z,6.28
2022-09-24T07:13:35.629Z,5.90
2022-09-24T07:15:26.169Z,6.50
2022-09-24T07:17:16.639Z,5.30
2022-09-24T07:19:07.021Z,5.50
2022-09-24T07:20:57.478Z,6.63
2022-09-24T07:22:49.588Z,5.78
2022-09-24T07:24:40.313Z,6.35
2022-09-24T07:26:31.007Z,5.22
2022-09-24T07:28:21.464Z,5.90
2022-09-24T07:30:12.429Z,6.60
2022-09-24T07:32:04.047Z,6.35
2022-09-24T07:33:54.623Z,6.50
2022-09-24T07:35:44.825Z,6.20
2022-09-24T07:37:35.827Z,5.55
2022-09-24T07:39:27.662Z,5.47
2022-09-24T07:41:18.029Z,5.82
2022-09-24T07:43:08.394Z,5.68
2022-09-24T07:44:59.265Z,6.30
2022-09-24T07:46:50.277Z,5.75
2022-09-24T07:48:41.362Z,6.10
2022-09-24T07:50:34.313Z,6.40
2022-09-24T07:52:24.566Z,6.40
2022-09-24T07:54:17.218Z,5.70
2022-09-24T07:56:09.302Z,5.20
2022-09-24T07:57:59.977Z,5.90
2022-09-24T07:59:50.501Z,5.28
2022-09-24T08:01:41.272Z,5.00
2022-09-24T08:03:31.851Z,4.95
2022-09-24T08:05:23.442Z,4.60
2022-09-24T08:07:14.301Z,4.55
2022-09-24T08:09:05.399Z,5.07
2022-09-24T08:10:55.933Z,4.63
2022-09-24T08:12:47.652Z,4.78
2022-09-24T08:14:38.327Z,5.22
2022-09-24T08:16:28.990Z,6.07
2022-09-24T08:18:19.670Z,4.50
2022-09-24T08:20:11.453Z,4.78
2022-09-24T08:22:02.254Z,4.57
2022-09-24T08:23:52.558Z,4.95
2022-09-24T08:25:42.920Z,3.97
2022-09-24T08:27:33.703Z,4.93
2022-09-24T08:29:25.840Z,4.25
2022-09-24T08:31:16.198Z,4.28
2022-09-24T08:33:07.105Z,4.28
2022-09-24T08:34:58.148Z,3.78
2022-09-24T08:36:48.948Z,4.82
2022-09-24T08:38:39.629Z,3.67
2022-09-24T08:40:31.746Z,4.25
2022-09-24T08:42:32.119Z,4.30
2022-09-24T08:44:29.367Z,3.90
2022-09-24T08:46:24.185Z,3.10
2022-09-24T08:48:16.225Z,3.75
2022-09-24T08:50:11.368Z,3.90
2022-09-24T08:52:07.742Z,3.22
2022-09-24T08:54:00.963Z,3.92
2022-09-24T08:55:53.225Z,3.38
2022-09-24T08:57:49.869Z,3.65
2022-09-24T08:59:44.942Z,3.72
2022-09-24T09:01:39.091Z,4.00
2022-09-24T09:03:36.269Z,3.63
2022-09-24T09:05:49.256Z,3.47
2022-09-24T09:07:44.703Z,3.75
2022-09-24T09:09:43.228Z,3.80
2022-09-24T09:11:36.166Z,3.15
2022-09-24T09:13:29.781Z,3.45
2022-09-24T09:15:24.385Z,3.67
2022-09-24T09:17:24.328Z,3.00
2022-09-24T09:19:16.224Z,3.17
2022-09-24T09:21:13.252Z,3.20
2022-09-24T09:23:08.208Z,2.83
2022-09-24T09:25:04.435Z,2.78
2022-09-24T09:26:56.396Z,3.28
2022-09-24T09:28:47.777Z,3.40
2022-09-24T09:30:42.312Z,2.83
2022-09-24T09:32:40.097Z,3.03
2022-09-24T09:34:47.924Z,3.65
2022-09-24T09:36:50.543Z,2.95
2022-09-24T09:38:47.742Z,2.70
2022-09-24T09:40:42.054Z,3.15
2022-09-24T09:42:33.884Z,2.78
2022-09-24T09:44:26.103Z,2.80
2022-09-24T09:48:11.202Z,3.10
2022-09-24T09:53:54.416Z,2.53
2022-09-24T09:55:51.787Z,2.70
2022-09-24T09:57:42.239Z,2.55
2022-09-24T09:59:34.396Z,2.75
2022-09-24T10:01:32.750Z,2.60
2022-09-24T10:03:25.818Z,3.33
2022-09-24T10:05:26.330Z,2.60
2022-09-24T10:07:18.077Z,3.53
2022-09-24T10:09:13.303Z,2.97
2022-09-24T10:11:04.021Z,2.72
2022-09-24T10:12:55.009Z,3.00
2022-09-24T10:14:57.151Z,2.70
2022-09-24T10:16:52.819Z,2.25
2022-09-24T10:18:45.842Z,3.13
2022-09-24T10:20:36.566Z,3.70
2022-09-24T10:22:27.632Z,3.20
2022-09-24T10:24:20.554Z,2.72
2022-09-24T10:26:11.469Z,2.55
2022-09-24T10:28:07.754Z,3.30
2022-09-24T10:29:58.531Z,2.75
2022-09-24T10:31:50.435Z,2.42
2022-09-24T10:33:42.889Z,3.10
2022-09-24T10:35:35.362Z,2.72
2022-09-24T10:37:26.693Z,2.63
2022-09-24T10:39:17.029Z,2.73
2022-09-24T10:41:24.157Z,2.60
2022-09-24T10:43:18.613Z,3.03
2022-09-24T10:45:13.146Z,2.70
2022-09-24T10:47:15.240Z,2.28
2022-09-24T10:49:11.709Z,2.72
2022-09-24T10:51:09.663Z,2.08
2022-09-24T10:53:03.727Z,2.10
2022-09-24T10:55:00.836Z,3.22
2022-09-24T10:56:52.996Z,2.22
2022-09-24T10:59:34.982Z,1.90
2022-09-24T11:01:30.589Z,2.67
2022-09-24T11:03:45.114Z,1.83
2022-09-24T11:05:37.730Z,2.10
2022-09-24T11:07:45.235Z,1.85
2022-09-24T11:09:41.528Z,2.08
2022-09-24T11:11:39.605Z,2.10
2022-09-24T11:13:36.233Z,2.33
2022-09-24T11:15:42.038Z,2.63
2022-09-24T11:17:34.703Z,2.00
2022-09-24T11:19:46.709Z,1.70
2022-09-24T11:21:55.439Z,1.97
2022-09-24T11:24:02.085Z,2.28
2022-09-24T11:25:59.481Z,2.13
2022-09-24T11:27:56.478Z,2.00
2022-09-24T11:29:55.961Z,1.92
2022-09-24T11:31:53.417Z,2.55
2022-09-24T11:33:59.292Z,2.45
2022-09-24T11:36:09.106Z,2.63
2022-09-24T11:38:01.107Z,2.42
2022-09-24T11:40:02.975Z,2.83
2022-09-24T11:41:59.987Z,2.22
2022-09-24T11:44:04.109Z,2.10
2022-09-24T11:46:04.579Z,1.90
2022-09-24T11:48:27.801Z,2.65
2022-09-24T11:50:26.300Z,2.00
2022-09-24T11:52:24.458Z,2.53
2022-09-24T11:54:20.010Z,1.70
2022-09-24T11:56:15.055Z,2.00
2022-09-24T11:58:14.312Z,2.13
2022-09-24T12:00:06.763Z,2.60
2022-09-24T12:03:55.820Z,2.47
2022-09-24T12:05:51.009Z,2.10
2022-09-24T12:07:47.897Z,2.30
2022-09-24T12:09:42.650Z,1.67
2022-09-24T12:11:36.453Z,2.42
2022-09-24T12:13:29.442Z,1.80
2022-09-24T12:15:22.321Z,1.80
2022-09-24T12:17:17.540Z,2.47
2022-09-24T12:19:14.989Z,3.22
2022-09-24T12:21:08.314Z,2.20
2022-09-24T12:23:02.952Z,1.67
2022-09-24T12:24:54.614Z,1.77
2022-09-24T12:26:45.784Z,2.50
2022-09-24T12:28:42.831Z,2.33
2022-09-24T12:30:37.530Z,2.10
2022-09-24T12:32:33.667Z,2.15
2022-09-24T12:34:29.154Z,2.50
2022-09-24T12:36:23.565Z,2.20
2022-09-24T12:38:19.197Z,2.42
2022-09-24T12:40:21.784Z,2.22
2022-09-24T12:42:13.334Z,2.00
2022-09-24T12:44:07.833Z,2.33
2022-09-24T12:46:01.062Z,2.50
2022-09-24T12:47:53.788Z,1.95
2022-09-24T12:49:49.379Z,2.50
2022-09-24T12:51:39.967Z,2.20
2022-09-24T12:53:34.720Z,2.45
2022-09-24T12:55:26.454Z,2.47
2022-09-24T12:57:24.948Z,2.38
2022-09-24T12:59:25.165Z,2.65
2022-09-24T13:01:29.792Z,2.30
2022-09-24T13:03:32.502Z,2.05
2022-09-24T13:05:28.426Z,1.95
2022-09-24T13:07:29.823Z,2.42
2022-09-24T13:09:33.231Z,2.00
2022-09-24T13:11:29.844Z,2.13
2022-09-24T13:13:23.881Z,2.63
2022-09-24T13:15:28.039Z,2.80
2022-09-24T13:17:18.782Z,2.67
2022-09-24T13:19:30.116Z,2.28
2022-09-24T13:21:23.872Z,2.45
2022-09-24T13:23:28.841Z,1.73
2022-09-24T13:25:23.436Z,1.50
2022-09-24T13:27:24.986Z,2.10
2022-09-24T13:29:24.045Z,2.13
2022-09-24T13:31:19.281Z,1.77
2022-09-24T13:33:19.446Z,2.10
2022-09-24T13:35:19.536Z,2.08
2022-09-24T13:37:19.002Z,1.83
2022-09-24T13:39:14.639Z,2.15
2022-09-24T13:41:18.368Z,2.22
2022-09-24T13:43:14.186Z,2.22
2022-09-24T13:45:09.867Z,2.50
2022-09-24T13:47:05.258Z,2.10
2022-09-24T13:48:58.476Z,1.95
2022-09-24T13:50:51.834Z,1.55
2022-09-24T13:52:44.887Z,2.53
2022-09-24T13:54:37.754Z,1.75
2022-09-24T13:56:29.882Z,1.50
2022-09-24T13:58:30.499Z,1.90
2022-09-24T14:00:22.809Z,1.90
2022-09-24T14:04:16.828Z,1.80
2022-09-24T14:06:11.597Z,1.75
2022-09-24T14:08:04.480Z,2.15
2022-09-24T14:10:06.272Z,2.22
2022-09-24T14:11:59.074Z,2.20
2022-09-24T14:13:49.631Z,1.85
2022-09-24T14:15:53.590Z,1.70
2022-09-24T14:17:56.107Z,2.20
2022-09-24T14:21:39.589Z,1.85
2022-09-24T14:23:34.182Z,2.03
2022-09-24T14:25:28.001Z,1.92
2022-09-24T14:27:22.033Z,2.40
2022-09-24T14:29:16.040Z,2.28
2022-09-24T14:31:08.187Z,1.50
2022-09-24T14:33:00.868Z,1.90
2022-09-24T14:34:52.616Z,1.70
2022-09-24T14:36:42.961Z,2.05
2022-09-24T14:38:35.068Z,1.73
2022-09-24T14:40:25.754Z,1.75
2022-09-24T14:42:23.076Z,2.10
2022-09-24T14:44:20.166Z,1.60
2022-09-24T14:46:18.470Z,2.03
2022-09-24T14:48:19.614Z,1.27
2022-09-24T14:50:32.334Z,1.90
2022-09-24T14:52:27.958Z,1.52
2022-09-24T14:54:27.632Z,1.67
2022-09-24T14:56:19.763Z,1.45
2022-09-24T14:58:25.359Z,1.75
2022-09-24T15:00:23.755Z,1.77
2022-09-24T15:02:20.293Z,1.40
2022-09-24T15:04:19.178Z,1.80
2022-09-24T15:06:19.415Z,1.67
2022-09-24T15:08:24.866Z,1.50
2022-09-24T15:10:22.494Z,1.67
2022-09-24T15:12:21.683Z,2.05
2022-09-24T15:14:24.609Z,2.28
2022-09-24T15:16:22.886Z,1.85
2022-09-24T15:18:17.802Z,1.70
2022-09-24T15:20:15.231Z,1.45
2022-09-24T15:22:11.381Z,1.35
2022-09-24T15:24:06.194Z,1.77
2022-09-24T15:26:01.283Z,2.40
2022-09-24T15:28:00.839Z,2.00
2022-09-24T15:30:00.741Z,1.88
2022-09-24T15:32:07.385Z,2.00
2022-09-24T15:34:08.902Z,2.10
2022-09-24T15:36:01.150Z,2.08
2022-09-24T15:38:00.828Z,1.65
2022-09-24T15:39:59.605Z,2.35
2022-09-24T15:41:54.484Z,1.98
2022-09-24T15:43:45.828Z,2.70
2022-09-24T15:45:39.553Z,1.88
2022-09-24T15:47:36.402Z,2.33
2022-09-24T15:49:34.321Z,2.00
2022-09-24T15:51:28.068Z,2.33
2022-09-24T15:53:21.250Z,2.20
2022-09-24T15:55:14.723Z,2.10
2022-09-24T15:57:11.169Z,2.20
2022-09-24T15:59:01.448Z,3.47
2022-09-24T16:00:53.368Z,3.22
2022-09-24T16:02:46.035Z,3.42
2022-09-24T16:06:26.842Z,7.55
2022-09-24T16:08:17.368Z,4.25
2022-09-24T16:10:08.970Z,4.05
2022-09-24T16:11:59.509Z,2.80
2022-09-24T16:13:50.192Z,2.20
2022-09-24T16:15:41.310Z,5.18
2022-09-24T16:17:33.139Z,3.03
2022-09-24T16:19:23.539Z,4.60
2022-09-24T16:21:15.388Z,2.90
2022-09-24T16:23:06.176Z,3.20
2022-09-24T16:24:56.637Z,2.50
2022-09-24T16:26:47.202Z,3.88
2022-09-24T16:28:37.970Z,2.83
2022-09-24T16:30:28.489Z,2.00
2022-09-24T16:32:18.883Z,1.95
2022-09-24T16:34:11.365Z,2.58
2022-09-24T16:36:05.151Z,2.72
2022-09-24T16:37:55.468Z,1.88
2022-09-24T16:39:46.146Z,1.70
2022-09-24T16:41:36.972Z,1.80
2022-09-24T16:43:27.574Z,1.50
2022-09-24T16:45:18.364Z,2.08
2022-09-24T16:47:08.744Z,1.73
2022-09-24T16:48:59.183Z,1.80
2022-09-24T16:50:50.788Z,2.13
2022-09-24T16:52:41.253Z,2.97
2022-09-24T16:54:31.897Z,1.65
2022-09-24T16:56:22.513Z,1.70
2022-09-24T16:58:13.084Z,2.03
2022-09-24T17:00:04.463Z,2.67
2022-09-24T17:01:55.129Z,2.17
2022-09-24T17:03:50.762Z,2.47
2022-09-24T17:05:41.219Z,1.67
2022-09-24T17:07:33.282Z,1.50
2022-09-24T17:09:23.611Z,1.83
2022-09-24T17:11:15.373Z,1.60
2022-09-24T17:13:05.816Z,1.80
2022-09-24T17:14:56.088Z,1.70
2022-09-24T17:16:46.688Z,1.83
2022-09-24T17:18:37.285Z,2.58
2022-09-24T17:20:27.752Z,2.00
2022-09-24T17:22:18.534Z,1.85
2022-09-24T17:24:10.633Z,1.95
2022-09-24T17:26:02.312Z,3.45
2022-09-24T17:27:52.669Z,2.60
2022-09-24T17:29:43.002Z,2.70
2022-09-24T17:31:33.594Z,2.42
2022-09-24T17:33:42.512Z,1.70
2022-09-24T17:35:34.381Z,1.98
2022-09-24T17:37:25.025Z,2.17
2022-09-24T17:39:16.971Z,2.38
2022-09-24T17:41:08.997Z,1.90
2022-09-24T17:44:50.100Z,2.38
2022-09-24T17:46:40.698Z,1.67
2022-09-24T17:48:32.626Z,2.33
2022-09-24T17:50:23.238Z,1.80
2022-09-24T17:52:13.665Z,1.55
2022-09-24T17:54:06.003Z,1.80
2022-09-24T17:55:58.263Z,2.00
2022-09-24T17:57:48.714Z,2.30
2022-09-24T17:59:38.897Z,2.28
2022-09-24T18:01:30.634Z,1.92
2022-09-24T18:03:21.440Z,2.45
2022-09-24T18:05:11.573Z,2.08
2022-09-24T18:07:01.798Z,1.80
2022-09-24T18:08:52.484Z,1.75
2022-09-24T18:10:43.069Z,1.92
2022-09-24T18:12:34.822Z,2.03
2022-09-24T18:14:25.247Z,2.25
2022-09-24T18:16:16.908Z,1.90
2022-09-24T18:18:07.613Z,2.22
2022-09-24T18:19:57.939Z,1.67
2022-09-24T18:21:48.315Z,1.67
2022-09-24T18:23:42.265Z,1.67
2022-09-24T18:25:33.044Z,1.80
2022-09-24T18:27:26.952Z,1.73
2022-09-24T18:29:19.068Z,2.38
2022-09-24T18:31:10.652Z,1.92
2022-09-24T18:33:01.415Z,1.92
2022-09-24T18:34:51.793Z,1.65
2022-09-24T18:36:43.756Z,2.78
2022-09-24T18:38:34.568Z,1.30
2022-09-24T18:40:25.464Z,1.77
2022-09-24T18:42:16.899Z,1.85
2022-09-24T18:44:07.440Z,1.88
2022-09-24T18:46:03.704Z,2.40
2022-09-24T18:47:55.045Z,2.17
2022-09-24T18:49:45.689Z,2.47
2022-09-24T18:51:37.277Z,2.53
2022-09-24T18:53:28.433Z,2.20
2022-09-24T18:55:19.017Z,2.30
2022-09-24T18:57:09.361Z,3.00
2022-09-24T18:59:02.736Z,2.50
2022-09-24T19:00:58.252Z,3.25
2022-09-24T19:02:50.148Z,2.72
2022-09-24T19:04:40.797Z,3.08
2022-09-24T19:06:31.721Z,2.75
2022-09-24T19:08:23.774Z,2.60
2022-09-24T19:10:14.448Z,3.28
2022-09-24T19:12:05.247Z,2.75
2022-09-24T19:13:55.572Z,2.50
2022-09-24T19:15:45.732Z,2.92
2022-09-24T19:17:36.527Z,3.28
2022-09-24T19:19:28.835Z,2.95
2022-09-24T19:21:19.650Z,3.47
2022-09-24T19:23:10.102Z,2.20
2022-09-24T19:25:00.595Z,2.08
2022-09-24T19:26:51.068Z,2.38
2022-09-24T19:28:42.340Z,2.28
2022-09-24T19:30:38.061Z,2.03
2022-09-24T19:32:28.522Z,2.00
2022-09-24T19:34:19.036Z,1.92
2022-09-24T19:36:11.470Z,1.65
2022-09-24T19:38:02.090Z,2.00
2022-09-24T19:39:52.869Z,1.92
2022-09-24T19:41:43.455Z,2.72
2022-09-24T19:43:34.732Z,2.42
2022-09-24T19:45:25.132Z,2.60
2022-09-24T19:47:15.739Z,1.90
2022-09-24T19:49:06.242Z,2.30
2022-09-24T19:51:00.466Z,2.50
2022-09-24T19:52:52.279Z,2.08
2022-09-24T19:56:34.114Z,2.40
2022-09-24T19:58:24.770Z,2.28
2022-09-24T20:00:15.260Z,2.03
2022-09-24T20:02:05.856Z,2.25
2022-09-24T20:03:57.075Z,2.55
2022-09-24T20:05:48.124Z,2.20
2022-09-24T20:07:38.591Z,2.45
2022-09-24T20:09:33.160Z,2.30
2022-09-24T20:11:26.658Z,2.65
2022-09-24T20:13:19.252Z,2.20
2022-09-24T20:15:10.769Z,2.75
2022-09-24T20:17:01.219Z,2.63
2022-09-24T20:18:53.352Z,2.60
2022-09-24T20:20:43.969Z,2.55
2022-09-24T20:22:35.068Z,2.30
2022-09-24T20:24:25.997Z,2.70
2022-09-24T20:26:17.895Z,2.45
2022-09-24T20:28:12.149Z,2.20
2022-09-24T20:30:07.185Z,2.47
2022-09-24T20:31:57.953Z,2.10
2022-09-24T20:33:48.991Z,2.05
2022-09-24T20:35:40.312Z,3.13
2022-09-24T20:37:30.940Z,2.85
2022-09-24T20:39:21.435Z,2.50
2022-09-24T20:41:17.544Z,2.35
2022-09-24T20:43:07.847Z,2.50
2022-09-24T20:45:01.342Z,2.60
2022-09-24T20:46:56.154Z,3.00
2022-09-24T20:48:52.627Z,2.55
2022-09-24T20:50:42.947Z,3.60
2022-09-24T20:52:33.419Z,2.65
2022-09-24T20:54:23.862Z,2.35
2022-09-24T20:56:15.113Z,2.22
2022-09-24T20:58:07.105Z,3.47
2022-09-24T20:59:57.537Z,3.53
2022-09-24T21:01:48.052Z,2.28
2022-09-24T21:03:44.334Z,2.55
2022-09-24T21:05:36.008Z,2.83
2022-09-24T21:07:26.526Z,3.15
2022-09-24T21:09:17.686Z,3.00
2022-09-24T21:11:09.840Z,3.17
2022-09-24T21:13:03.915Z,2.55
2022-09-24T21:14:56.011Z,2.85
2022-09-24T21:16:46.768Z,2.53
2022-09-24T21:18:40.325Z,2.83
2022-09-24T21:20:31.400Z,2.88
2022-09-24T21:22:21.763Z,2.40
2022-09-24T21:24:14.041Z,3.13
2022-09-24T21:27:58.555Z,4.38
2022-09-24T21:29:48.993Z,2.90
2022-09-24T21:31:40.979Z,2.90
2022-09-24T21:33:32.448Z,2.80
2022-09-24T21:35:23.175Z,3.20
2022-09-24T21:37:14.673Z,2.53
2022-09-24T21:39:06.456Z,3.22
2022-09-24T21:40:57.470Z,2.38
2022-09-24T21:42:47.813Z,3.33
2022-09-24T21:44:38.169Z,3.50
2022-09-24T21:46:29.453Z,3.30
2022-09-24T21:48:21.350Z,2.92
2022-09-24T21:50:11.783Z,2.83
2022-09-24T21:52:04.405Z,3.28
2022-09-24T21:55:46.602Z,3.30
2022-09-24T21:57:37.194Z,3.42
2022-09-24T21:59:27.841Z,3.28
2022-09-24T22:01:19.821Z,2.60
2022-09-24T22:03:10.567Z,3.42
2022-09-24T22:05:02.641Z,3.30
2022-09-24T22:06:53.256Z,2.50
2022-09-24T22:08:43.759Z,2.60
2022-09-24T22:10:33.977Z,2.60
2022-09-24T22:12:24.421Z,2.83
2022-09-24T22:14:14.776Z,2.80
2022-09-24T22:16:06.641Z,2.63
2022-09-24T22:17:57.089Z,2.55
2022-09-24T22:19:47.481Z,2.80
2022-09-24T22:21:39.396Z,2.90
2022-09-24T22:23:29.640Z,2.92
2022-09-24T22:25:19.977Z,3.53
2022-09-24T22:27:10.652Z,2.95
2022-09-24T22:29:01.476Z,3.67
2022-09-24T22:30:52.479Z,3.40
2022-09-24T22:32:42.869Z,3.65
2022-09-24T22:34:33.475Z,3.38
2022-09-24T22:36:24.326Z,3.30
2022-09-24T22:38:16.342Z,3.03
2022-09-24T22:40:07.702Z,3.40
2022-09-24T22:41:57.917Z,3.67
2022-09-24T22:44:02.541Z,3.40
2022-09-24T22:45:57.162Z,3.40
2022-09-24T22:47:47.447Z,2.78
2022-09-24T22:49:37.745Z,3.25
2022-09-24T22:51:28.299Z,2.92
2022-09-24T22:53:18.716Z,3.22
2022-09-24T22:55:09.399Z,3.38
2022-09-24T22:56:59.723Z,3.00
2022-09-24T22:58:51.762Z,3.05
2022-09-24T23:00:43.531Z,3.75
2022-09-24T23:02:34.541Z,2.65
2022-09-24T23:04:25.200Z,3.40
2022-09-24T23:06:24.595Z,3.17
2022-09-24T23:08:14.987Z,3.10
2022-09-24T23:10:06.341Z,3.13
2022-09-24T23:11:57.172Z,3.30
2022-09-24T23:13:51.575Z,2.75
2022-09-24T23:15:43.465Z,3.53
2022-09-24T23:17:36.102Z,3.08
2022-09-24T23:19:26.539Z,3.20
2022-09-24T23:21:18.690Z,3.33
2022-09-24T23:23:09.322Z,3.10
2022-09-24T23:24:59.557Z,3.72
2022-09-24T23:26:50.202Z,2.90
2022-09-24T23:28:40.988Z,2.92
2022-09-24T23:30:31.417Z,2.55
2022-09-24T23:32:22.978Z,2.83
2022-09-24T23:34:13.566Z,3.30
2022-09-24T23:36:04.307Z,3.53
2022-09-24T23:37:54.932Z,2.63
2022-09-24T23:39:45.662Z,3.00
2022-09-24T23:41:36.270Z,2.88
2022-09-24T23:43:29.782Z,2.38
2022-09-24T23:45:20.819Z,2.53
2022-09-24T23:47:11.030Z,2.55
2022-09-24T23:49:02.734Z,2.40
2022-09-24T23:50:53.026Z,2.63
2022-09-24T23:52:43.256Z,3.85
2022-09-24T23:54:33.767Z,2.67
2022-09-24T23:56:24.260Z,2.85
2022-09-24T23:58:16.857Z,2.60
